sensor_id;sensor_type;location;lat;lon;timestamp;P1;durP1;ratioP1;P2;durP2;ratioP2
57746;SDS011;43580;44.014;20.466;2023-04-24T00:00:14;30.60;;;19.33;;
57746;SDS011;43580;44.014;20.466;2023-04-24T00:02:41;27.25;;;17.88;;
57746;SDS011;43580;44.014;20.466;2023-04-24T00:05:11;30.02;;;18.02;;
57746;SDS011;43580;44.014;20.466;2023-04-24T00:07:37;26.20;;;16.85;;
57746;SDS011;43580;44.014;20.466;2023-04-24T00:10:03;32.15;;;17.90;;
57746;SDS011;43580;44.014;20.466;2023-04-24T00:12:30;26.38;;;17.30;;
57746;SDS011;43580;44.014;20.466;2023-04-24T00:14:56;30.45;;;20.25;;
57746;SDS011;43580;44.014;20.466;2023-04-24T00:17:22;30.98;;;18.63;;
57746;SDS011;43580;44.014;20.466;2023-04-24T00:19:48;30.45;;;19.60;;
57746;SDS011;43580;44.014;20.466;2023-04-24T00:22:23;30.35;;;20.15;;
57746;SDS011;43580;44.014;20.466;2023-04-24T00:24:49;34.97;;;21.73;;
57746;SDS011;43580;44.014;20.466;2023-04-24T00:27:15;34.22;;;22.75;;
57746;SDS011;43580;44.014;20.466;2023-04-24T00:29:41;39.35;;;23.10;;
57746;SDS011;43580;44.014;20.466;2023-04-24T00:32:08;33.00;;;21.13;;
57746;SDS011;43580;44.014;20.466;2023-04-24T00:34:36;33.47;;;22.02;;
57746;SDS011;43580;44.014;20.466;2023-04-24T00:37:03;33.28;;;22.05;;
57746;SDS011;43580;44.014;20.466;2023-04-24T00:39:29;33.25;;;22.88;;
57746;SDS011;43580;44.014;20.466;2023-04-24T00:41:55;35.58;;;23.50;;
57746;SDS011;43580;44.014;20.466;2023-04-24T00:44:21;37.13;;;23.08;;
57746;SDS011;43580;44.014;20.466;2023-04-24T00:46:48;36.97;;;23.20;;
57746;SDS011;43580;44.014;20.466;2023-04-24T00:49:22;31.70;;;21.35;;
57746;SDS011;43580;44.014;20.466;2023-04-24T00:51:48;38.33;;;21.50;;
57746;SDS011;43580;44.014;20.466;2023-04-24T00:54:16;38.10;;;22.27;;
57746;SDS011;43580;44.014;20.466;2023-04-24T00:56:42;34.75;;;21.27;;
57746;SDS011;43580;44.014;20.466;2023-04-24T00:59:09;34.42;;;21.00;;
57746;SDS011;43580;44.014;20.466;2023-04-24T01:01:35;31.83;;;21.25;;
57746;SDS011;43580;44.014;20.466;2023-04-24T01:04:02;33.45;;;20.40;;
57746;SDS011;43580;44.014;20.466;2023-04-24T01:06:28;33.22;;;19.75;;
57746;SDS011;43580;44.014;20.466;2023-04-24T01:08:56;28.05;;;19.13;;
57746;SDS011;43580;44.014;20.466;2023-04-24T01:11:22;29.45;;;18.05;;
57746;SDS011;43580;44.014;20.466;2023-04-24T01:13:48;30.60;;;18.98;;
57746;SDS011;43580;44.014;20.466;2023-04-24T01:16:14;31.35;;;18.98;;
57746;SDS011;43580;44.014;20.466;2023-04-24T01:18:42;31.88;;;20.13;;
57746;SDS011;43580;44.014;20.466;2023-04-24T01:21:08;29.50;;;20.45;;
57746;SDS011;43580;44.014;20.466;2023-04-24T01:23:36;28.77;;;19.83;;
57746;SDS011;43580;44.014;20.466;2023-04-24T01:26:02;34.75;;;20.45;;
57746;SDS011;43580;44.014;20.466;2023-04-24T01:28:28;33.25;;;20.60;;
57746;SDS011;43580;44.014;20.466;2023-04-24T01:30:54;33.10;;;21.25;;
57746;SDS011;43580;44.014;20.466;2023-04-24T01:33:23;33.72;;;21.90;;
57746;SDS011;43580;44.014;20.466;2023-04-24T01:35:49;35.00;;;20.65;;
57746;SDS011;43580;44.014;20.466;2023-04-24T01:38:15;32.80;;;21.40;;
57746;SDS011;43580;44.014;20.466;2023-04-24T01:40:44;33.40;;;20.30;;
57746;SDS011;43580;44.014;20.466;2023-04-24T01:43:11;35.10;;;20.13;;
57746;SDS011;43580;44.014;20.466;2023-04-24T01:45:37;31.73;;;19.77;;
57746;SDS011;43580;44.014;20.466;2023-04-24T01:48:03;30.85;;;19.27;;
57746;SDS011;43580;44.014;20.466;2023-04-24T01:50:30;32.75;;;18.65;;
57746;SDS011;43580;44.014;20.466;2023-04-24T01:52:56;35.90;;;20.10;;
57746;SDS011;43580;44.014;20.466;2023-04-24T01:55:22;28.23;;;17.40;;
57746;SDS011;43580;44.014;20.466;2023-04-24T01:57:48;27.73;;;18.38;;
57746;SDS011;43580;44.014;20.466;2023-04-24T02:00:14;32.72;;;20.52;;
57746;SDS011;43580;44.014;20.466;2023-04-24T02:02:41;30.42;;;19.30;;
57746;SDS011;43580;44.014;20.466;2023-04-24T02:05:07;43.97;;;26.17;;
57746;SDS011;43580;44.014;20.466;2023-04-24T02:07:33;52.15;;;26.92;;
57746;SDS011;43580;44.014;20.466;2023-04-24T02:09:59;44.15;;;25.55;;
57746;SDS011;43580;44.014;20.466;2023-04-24T02:12:25;34.22;;;21.75;;
57746;SDS011;43580;44.014;20.466;2023-04-24T02:14:52;32.65;;;20.38;;
57746;SDS011;43580;44.014;20.466;2023-04-24T02:17:18;32.13;;;20.30;;
57746;SDS011;43580;44.014;20.466;2023-04-24T02:19:44;33.67;;;19.65;;
57746;SDS011;43580;44.014;20.466;2023-04-24T02:22:11;34.78;;;19.95;;
57746;SDS011;43580;44.014;20.466;2023-04-24T02:24:39;31.13;;;20.88;;
57746;SDS011;43580;44.014;20.466;2023-04-24T02:27:05;33.55;;;19.90;;
57746;SDS011;43580;44.014;20.466;2023-04-24T02:29:34;32.90;;;18.80;;
57746;SDS011;43580;44.014;20.466;2023-04-24T02:32:03;30.15;;;18.83;;
57746;SDS011;43580;44.014;20.466;2023-04-24T02:34:29;27.10;;;18.27;;
57746;SDS011;43580;44.014;20.466;2023-04-24T02:36:55;28.25;;;19.50;;
57746;SDS011;43580;44.014;20.466;2023-04-24T02:39:21;30.63;;;20.40;;
57746;SDS011;43580;44.014;20.466;2023-04-24T02:41:49;33.53;;;19.58;;
57746;SDS011;43580;44.014;20.466;2023-04-24T02:44:16;110.07;;;99.90;;
57746;SDS011;43580;44.014;20.466;2023-04-24T02:46:42;33.70;;;27.17;;
57746;SDS011;43580;44.014;20.466;2023-04-24T02:49:08;32.83;;;20.17;;
57746;SDS011;43580;44.014;20.466;2023-04-24T02:51:37;29.58;;;18.85;;
57746;SDS011;43580;44.014;20.466;2023-04-24T02:54:06;26.25;;;17.08;;
57746;SDS011;43580;44.014;20.466;2023-04-24T02:56:32;27.67;;;18.40;;
57746;SDS011;43580;44.014;20.466;2023-04-24T02:58:58;32.95;;;18.88;;
57746;SDS011;43580;44.014;20.466;2023-04-24T03:01:24;30.33;;;18.70;;
57746;SDS011;43580;44.014;20.466;2023-04-24T03:03:52;30.58;;;20.58;;
57746;SDS011;43580;44.014;20.466;2023-04-24T03:06:21;35.10;;;22.52;;
57746;SDS011;43580;44.014;20.466;2023-04-24T03:08:49;40.35;;;21.05;;
57746;SDS011;43580;44.014;20.466;2023-04-24T03:11:15;34.17;;;22.17;;
57746;SDS011;43580;44.014;20.466;2023-04-24T03:13:41;33.95;;;20.88;;
57746;SDS011;43580;44.014;20.466;2023-04-24T03:16:10;35.67;;;18.42;;
57746;SDS011;43580;44.014;20.466;2023-04-24T03:18:36;31.55;;;20.02;;
57746;SDS011;43580;44.014;20.466;2023-04-24T03:21:02;31.98;;;21.23;;
57746;SDS011;43580;44.014;20.466;2023-04-24T03:23:28;25.02;;;15.90;;
57746;SDS011;43580;44.014;20.466;2023-04-24T03:25:54;25.67;;;15.27;;
57746;SDS011;43580;44.014;20.466;2023-04-24T03:28:20;20.42;;;13.95;;
57746;SDS011;43580;44.014;20.466;2023-04-24T03:30:47;20.08;;;13.55;;
57746;SDS011;43580;44.014;20.466;2023-04-24T03:33:13;22.45;;;13.38;;
57746;SDS011;43580;44.014;20.466;2023-04-24T03:35:39;20.38;;;13.18;;
57746;SDS011;43580;44.014;20.466;2023-04-24T03:38:06;26.65;;;15.65;;
57746;SDS011;43580;44.014;20.466;2023-04-24T03:40:32;24.58;;;14.45;;
57746;SDS011;43580;44.014;20.466;2023-04-24T03:42:58;21.95;;;14.88;;
57746;SDS011;43580;44.014;20.466;2023-04-24T03:45:25;27.10;;;17.85;;
57746;SDS011;43580;44.014;20.466;2023-04-24T03:47:55;26.17;;;16.15;;
57746;SDS011;43580;44.014;20.466;2023-04-24T03:50:21;22.52;;;15.93;;
57746;SDS011;43580;44.014;20.466;2023-04-24T03:52:48;23.20;;;15.45;;
57746;SDS011;43580;44.014;20.466;2023-04-24T03:55:14;25.65;;;17.05;;
57746;SDS011;43580;44.014;20.466;2023-04-24T03:57:42;25.77;;;16.95;;
57746;SDS011;43580;44.014;20.466;2023-04-24T04:00:08;22.08;;;14.65;;
57746;SDS011;43580;44.014;20.466;2023-04-24T04:02:35;26.17;;;17.55;;
57746;SDS011;43580;44.014;20.466;2023-04-24T04:05:01;30.05;;;19.20;;
57746;SDS011;43580;44.014;20.466;2023-04-24T04:07:27;29.02;;;18.33;;
57746;SDS011;43580;44.014;20.466;2023-04-24T04:09:54;30.58;;;18.67;;
57746;SDS011;43580;44.014;20.466;2023-04-24T04:12:23;26.13;;;17.95;;
57746;SDS011;43580;44.014;20.466;2023-04-24T04:14:51;29.38;;;19.75;;
57746;SDS011;43580;44.014;20.466;2023-04-24T04:17:17;32.63;;;19.88;;
57746;SDS011;43580;44.014;20.466;2023-04-24T04:19:43;31.50;;;20.13;;
57746;SDS011;43580;44.014;20.466;2023-04-24T04:22:10;28.88;;;19.65;;
57746;SDS011;43580;44.014;20.466;2023-04-24T04:24:36;27.08;;;18.63;;
57746;SDS011;43580;44.014;20.466;2023-04-24T04:27:03;25.30;;;17.90;;
57746;SDS011;43580;44.014;20.466;2023-04-24T04:29:29;40.05;;;19.95;;
57746;SDS011;43580;44.014;20.466;2023-04-24T04:31:56;31.63;;;18.15;;
57746;SDS011;43580;44.014;20.466;2023-04-24T04:34:23;29.58;;;16.40;;
57746;SDS011;43580;44.014;20.466;2023-04-24T04:36:49;27.98;;;16.33;;
57746;SDS011;43580;44.014;20.466;2023-04-24T04:39:17;36.65;;;18.50;;
57746;SDS011;43580;44.014;20.466;2023-04-24T04:41:44;34.78;;;18.45;;
57746;SDS011;43580;44.014;20.466;2023-04-24T04:44:14;25.75;;;16.45;;
57746;SDS011;43580;44.014;20.466;2023-04-24T04:46:40;24.95;;;15.32;;
57746;SDS011;43580;44.014;20.466;2023-04-24T04:49:06;30.23;;;15.25;;
57746;SDS011;43580;44.014;20.466;2023-04-24T04:51:34;34.17;;;16.58;;
57746;SDS011;43580;44.014;20.466;2023-04-24T04:54:00;36.88;;;17.30;;
57746;SDS011;43580;44.014;20.466;2023-04-24T04:56:26;29.98;;;16.98;;
57746;SDS011;43580;44.014;20.466;2023-04-24T04:58:52;28.13;;;15.77;;
57746;SDS011;43580;44.014;20.466;2023-04-24T05:01:18;23.42;;;14.68;;
57746;SDS011;43580;44.014;20.466;2023-04-24T05:03:50;27.70;;;15.63;;
57746;SDS011;43580;44.014;20.466;2023-04-24T05:06:16;36.45;;;16.10;;
57746;SDS011;43580;44.014;20.466;2023-04-24T05:08:42;34.00;;;16.92;;
57746;SDS011;43580;44.014;20.466;2023-04-24T05:11:08;32.03;;;17.63;;
57746;SDS011;43580;44.014;20.466;2023-04-24T05:13:37;30.27;;;16.13;;
57746;SDS011;43580;44.014;20.466;2023-04-24T05:16:03;31.90;;;15.73;;
57746;SDS011;43580;44.014;20.466;2023-04-24T05:18:29;30.45;;;16.20;;
57746;SDS011;43580;44.014;20.466;2023-04-24T05:20:55;34.65;;;18.02;;
57746;SDS011;43580;44.014;20.466;2023-04-24T05:23:21;32.58;;;18.67;;
57746;SDS011;43580;44.014;20.466;2023-04-24T05:25:49;93.53;;;59.03;;
57746;SDS011;43580;44.014;20.466;2023-04-24T05:28:16;39.80;;;22.10;;
57746;SDS011;43580;44.014;20.466;2023-04-24T05:30:42;39.15;;;19.88;;
57746;SDS011;43580;44.014;20.466;2023-04-24T05:33:08;29.98;;;15.18;;
57746;SDS011;43580;44.014;20.466;2023-04-24T05:35:34;32.67;;;22.17;;
57746;SDS011;43580;44.014;20.466;2023-04-24T05:38:00;35.25;;;21.17;;
57746;SDS011;43580;44.014;20.466;2023-04-24T05:40:31;42.70;;;21.38;;
57746;SDS011;43580;44.014;20.466;2023-04-24T05:42:57;39.78;;;19.23;;
57746;SDS011;43580;44.014;20.466;2023-04-24T05:45:23;44.35;;;20.45;;
57746;SDS011;43580;44.014;20.466;2023-04-24T05:47:50;47.85;;;24.05;;
57746;SDS011;43580;44.014;20.466;2023-04-24T05:50:18;41.47;;;24.10;;
57746;SDS011;43580;44.014;20.466;2023-04-24T05:52:44;43.38;;;25.45;;
57746;SDS011;43580;44.014;20.466;2023-04-24T05:55:11;85.15;;;49.45;;
57746;SDS011;43580;44.014;20.466;2023-04-24T05:57:42;56.95;;;34.15;;
57746;SDS011;43580;44.014;20.466;2023-04-24T06:00:09;35.35;;;21.13;;
57746;SDS011;43580;44.014;20.466;2023-04-24T06:02:37;31.77;;;20.90;;
57746;SDS011;43580;44.014;20.466;2023-04-24T06:05:03;35.08;;;22.25;;
57746;SDS011;43580;44.014;20.466;2023-04-24T06:07:30;40.08;;;24.17;;
57746;SDS011;43580;44.014;20.466;2023-04-24T06:09:56;40.15;;;23.75;;
57746;SDS011;43580;44.014;20.466;2023-04-24T06:12:22;31.83;;;21.02;;
57746;SDS011;43580;44.014;20.466;2023-04-24T06:14:48;54.70;;;36.85;;
57746;SDS011;43580;44.014;20.466;2023-04-24T06:17:15;23.02;;;16.13;;
57746;SDS011;43580;44.014;20.466;2023-04-24T06:19:41;34.35;;;21.83;;
57746;SDS011;43580;44.014;20.466;2023-04-24T06:22:07;23.10;;;14.02;;
57746;SDS011;43580;44.014;20.466;2023-04-24T06:24:33;23.80;;;13.75;;
57746;SDS011;43580;44.014;20.466;2023-04-24T06:27:02;21.42;;;14.65;;
57746;SDS011;43580;44.014;20.466;2023-04-24T06:29:28;22.48;;;12.82;;
57746;SDS011;43580;44.014;20.466;2023-04-24T06:31:54;15.70;;;11.35;;
57746;SDS011;43580;44.014;20.466;2023-04-24T06:34:23;17.02;;;12.20;;
57746;SDS011;43580;44.014;20.466;2023-04-24T06:36:49;20.38;;;11.45;;
57746;SDS011;43580;44.014;20.466;2023-04-24T06:39:15;23.08;;;12.88;;
57746;SDS011;43580;44.014;20.466;2023-04-24T06:41:41;27.70;;;14.38;;
57746;SDS011;43580;44.014;20.466;2023-04-24T06:44:07;34.75;;;20.40;;
57746;SDS011;43580;44.014;20.466;2023-04-24T06:46:33;20.83;;;13.23;;
57746;SDS011;43580;44.014;20.466;2023-04-24T06:49:00;15.02;;;10.27;;
57746;SDS011;43580;44.014;20.466;2023-04-24T06:51:26;12.57;;;9.13;;
57746;SDS011;43580;44.014;20.466;2023-04-24T06:53:53;9.98;;;4.68;;
57746;SDS011;43580;44.014;20.466;2023-04-24T06:56:19;13.75;;;7.95;;
57746;SDS011;43580;44.014;20.466;2023-04-24T06:58:45;8.95;;;4.85;;
57746;SDS011;43580;44.014;20.466;2023-04-24T07:01:12;9.23;;;5.38;;
57746;SDS011;43580;44.014;20.466;2023-04-24T07:03:38;9.40;;;4.30;;
57746;SDS011;43580;44.014;20.466;2023-04-24T07:06:04;7.43;;;4.18;;
57746;SDS011;43580;44.014;20.466;2023-04-24T07:08:33;6.65;;;4.60;;
57746;SDS011;43580;44.014;20.466;2023-04-24T07:11:00;11.13;;;4.90;;
57746;SDS011;43580;44.014;20.466;2023-04-24T07:13:27;10.05;;;5.55;;
57746;SDS011;43580;44.014;20.466;2023-04-24T07:15:53;13.70;;;6.38;;
57746;SDS011;43580;44.014;20.466;2023-04-24T07:18:21;8.80;;;4.95;;
57746;SDS011;43580;44.014;20.466;2023-04-24T07:20:47;8.57;;;4.97;;
57746;SDS011;43580;44.014;20.466;2023-04-24T07:23:15;8.80;;;4.78;;
57746;SDS011;43580;44.014;20.466;2023-04-24T07:25:41;12.30;;;5.75;;
57746;SDS011;43580;44.014;20.466;2023-04-24T07:28:07;9.00;;;6.05;;
57746;SDS011;43580;44.014;20.466;2023-04-24T07:30:36;10.35;;;4.80;;
57746;SDS011;43580;44.014;20.466;2023-04-24T07:33:02;9.05;;;4.65;;
57746;SDS011;43580;44.014;20.466;2023-04-24T07:35:28;10.85;;;4.90;;
57746;SDS011;43580;44.014;20.466;2023-04-24T07:37:54;10.02;;;5.47;;
57746;SDS011;43580;44.014;20.466;2023-04-24T07:40:20;8.52;;;5.20;;
57746;SDS011;43580;44.014;20.466;2023-04-24T07:42:47;20.17;;;11.98;;
57746;SDS011;43580;44.014;20.466;2023-04-24T07:45:20;24.98;;;12.13;;
57746;SDS011;43580;44.014;20.466;2023-04-24T07:47:47;28.85;;;13.60;;
57746;SDS011;43580;44.014;20.466;2023-04-24T07:50:14;14.63;;;7.10;;
57746;SDS011;43580;44.014;20.466;2023-04-24T07:52:40;14.02;;;7.80;;
57746;SDS011;43580;44.014;20.466;2023-04-24T07:55:06;7.70;;;5.35;;
57746;SDS011;43580;44.014;20.466;2023-04-24T07:57:32;8.60;;;5.40;;
57746;SDS011;43580;44.014;20.466;2023-04-24T07:59:58;9.40;;;5.30;;
57746;SDS011;43580;44.014;20.466;2023-04-24T08:02:24;14.38;;;5.90;;
57746;SDS011;43580;44.014;20.466;2023-04-24T08:04:54;7.57;;;4.68;;
57746;SDS011;43580;44.014;20.466;2023-04-24T08:07:21;6.95;;;4.93;;
57746;SDS011;43580;44.014;20.466;2023-04-24T08:09:47;11.23;;;5.82;;
57746;SDS011;43580;44.014;20.466;2023-04-24T08:12:13;9.85;;;5.03;;
57746;SDS011;43580;44.014;20.466;2023-04-24T08:14:40;9.40;;;5.50;;
57746;SDS011;43580;44.014;20.466;2023-04-24T08:17:06;10.60;;;5.97;;
57746;SDS011;43580;44.014;20.466;2023-04-24T08:19:32;10.70;;;4.50;;
57746;SDS011;43580;44.014;20.466;2023-04-24T08:21:58;9.27;;;4.60;;
57746;SDS011;43580;44.014;20.466;2023-04-24T08:24:24;7.68;;;4.28;;
57746;SDS011;43580;44.014;20.466;2023-04-24T08:26:50;7.63;;;4.63;;
57746;SDS011;43580;44.014;20.466;2023-04-24T08:29:17;8.70;;;3.95;;
57746;SDS011;43580;44.014;20.466;2023-04-24T08:31:43;5.28;;;3.63;;
57746;SDS011;43580;44.014;20.466;2023-04-24T08:34:09;7.05;;;4.30;;
57746;SDS011;43580;44.014;20.466;2023-04-24T08:36:36;6.47;;;3.75;;
57746;SDS011;43580;44.014;20.466;2023-04-24T08:39:02;7.57;;;4.50;;
57746;SDS011;43580;44.014;20.466;2023-04-24T08:41:28;10.25;;;4.22;;
57746;SDS011;43580;44.014;20.466;2023-04-24T08:43:55;6.20;;;4.20;;
57746;SDS011;43580;44.014;20.466;2023-04-24T08:46:23;5.45;;;3.63;;
57746;SDS011;43580;44.014;20.466;2023-04-24T08:48:55;9.52;;;4.07;;
57746;SDS011;43580;44.014;20.466;2023-04-24T08:51:21;7.13;;;4.13;;
57746;SDS011;43580;44.014;20.466;2023-04-24T08:53:48;8.38;;;4.85;;
57746;SDS011;43580;44.014;20.466;2023-04-24T08:56:14;9.25;;;4.70;;
57746;SDS011;43580;44.014;20.466;2023-04-24T08:58:41;9.05;;;4.30;;
57746;SDS011;43580;44.014;20.466;2023-04-24T09:01:07;12.27;;;5.22;;
57746;SDS011;43580;44.014;20.466;2023-04-24T09:03:35;9.98;;;5.00;;
57746;SDS011;43580;44.014;20.466;2023-04-24T09:06:02;8.38;;;4.65;;
57746;SDS011;43580;44.014;20.466;2023-04-24T09:08:28;10.02;;;5.90;;
57746;SDS011;43580;44.014;20.466;2023-04-24T09:10:55;13.32;;;8.38;;
57746;SDS011;43580;44.014;20.466;2023-04-24T09:13:23;10.73;;;5.60;;
57746;SDS011;43580;44.014;20.466;2023-04-24T09:15:50;52.15;;;37.03;;
57746;SDS011;43580;44.014;20.466;2023-04-24T09:18:16;17.27;;;10.32;;
57746;SDS011;43580;44.014;20.466;2023-04-24T09:20:58;8.60;;;5.50;;
57746;SDS011;43580;44.014;20.466;2023-04-24T09:23:31;10.23;;;6.50;;
57746;SDS011;43580;44.014;20.466;2023-04-24T09:25:58;42.63;;;28.65;;
57746;SDS011;43580;44.014;20.466;2023-04-24T09:28:32;18.50;;;11.80;;
57746;SDS011;43580;44.014;20.466;2023-04-24T09:31:02;11.02;;;8.05;;
57746;SDS011;43580;44.014;20.466;2023-04-24T09:33:28;9.35;;;7.55;;
57746;SDS011;43580;44.014;20.466;2023-04-24T09:35:54;10.43;;;6.93;;
57746;SDS011;43580;44.014;20.466;2023-04-24T09:38:30;11.90;;;5.57;;
57746;SDS011;43580;44.014;20.466;2023-04-24T09:40:58;10.15;;;4.93;;
57746;SDS011;43580;44.014;20.466;2023-04-24T09:43:26;18.67;;;13.90;;
57746;SDS011;43580;44.014;20.466;2023-04-24T09:45:54;12.73;;;8.93;;
57746;SDS011;43580;44.014;20.466;2023-04-24T09:48:29;15.38;;;9.90;;
57746;SDS011;43580;44.014;20.466;2023-04-24T09:53:25;13.02;;;7.60;;
57746;SDS011;43580;44.014;20.466;2023-04-24T09:55:51;13.00;;;7.53;;
57746;SDS011;43580;44.014;20.466;2023-04-24T09:58:18;11.07;;;7.22;;
57746;SDS011;43580;44.014;20.466;2023-04-24T10:00:44;13.02;;;8.27;;
57746;SDS011;43580;44.014;20.466;2023-04-24T10:03:11;11.98;;;6.47;;
57746;SDS011;43580;44.014;20.466;2023-04-24T10:05:37;9.68;;;4.13;;
57746;SDS011;43580;44.014;20.466;2023-04-24T10:08:04;11.07;;;5.07;;
57746;SDS011;43580;44.014;20.466;2023-04-24T10:10:31;6.05;;;4.60;;
57746;SDS011;43580;44.014;20.466;2023-04-24T10:12:57;7.97;;;5.43;;
57746;SDS011;43580;44.014;20.466;2023-04-24T10:15:24;9.45;;;5.15;;
57746;SDS011;43580;44.014;20.466;2023-04-24T10:17:50;11.05;;;5.00;;
57746;SDS011;43580;44.014;20.466;2023-04-24T10:20:20;10.93;;;4.85;;
57746;SDS011;43580;44.014;20.466;2023-04-24T10:22:50;7.80;;;4.30;;
57746;SDS011;43580;44.014;20.466;2023-04-24T10:25:20;11.38;;;7.30;;
57746;SDS011;43580;44.014;20.466;2023-04-24T10:27:47;11.52;;;5.47;;
57746;SDS011;43580;44.014;20.466;2023-04-24T10:30:13;9.98;;;5.28;;
57746;SDS011;43580;44.014;20.466;2023-04-24T10:32:42;8.82;;;4.45;;
57746;SDS011;43580;44.014;20.466;2023-04-24T10:35:12;7.35;;;4.07;;
57746;SDS011;43580;44.014;20.466;2023-04-24T10:40:27;10.55;;;4.30;;
57746;SDS011;43580;44.014;20.466;2023-04-24T10:42:53;13.77;;;4.10;;
57746;SDS011;43580;44.014;20.466;2023-04-24T10:45:20;11.50;;;4.20;;
57746;SDS011;43580;44.014;20.466;2023-04-24T10:47:59;8.75;;;3.70;;
57746;SDS011;43580;44.014;20.466;2023-04-24T10:50:48;9.60;;;3.88;;
57746;SDS011;43580;44.014;20.466;2023-04-24T10:53:14;7.50;;;4.13;;
57746;SDS011;43580;44.014;20.466;2023-04-24T10:58:09;7.13;;;4.35;;
57746;SDS011;43580;44.014;20.466;2023-04-24T11:00:37;7.97;;;3.45;;
57746;SDS011;43580;44.014;20.466;2023-04-24T11:03:04;6.03;;;3.78;;
57746;SDS011;43580;44.014;20.466;2023-04-24T11:08:39;8.60;;;3.40;;
57746;SDS011;43580;44.014;20.466;2023-04-24T11:11:14;5.95;;;3.63;;
57746;SDS011;43580;44.014;20.466;2023-04-24T11:16:32;9.07;;;6.63;;
57746;SDS011;43580;44.014;20.466;2023-04-24T11:21:31;7.30;;;3.88;;
57746;SDS011;43580;44.014;20.466;2023-04-24T11:23:58;17.58;;;5.28;;
57746;SDS011;43580;44.014;20.466;2023-04-24T11:26:24;13.80;;;5.50;;
57746;SDS011;43580;44.014;20.466;2023-04-24T11:29:05;11.43;;;4.88;;
57746;SDS011;43580;44.014;20.466;2023-04-24T11:31:39;11.07;;;5.43;;
57746;SDS011;43580;44.014;20.466;2023-04-24T11:34:12;12.65;;;7.22;;
57746;SDS011;43580;44.014;20.466;2023-04-24T11:36:39;11.77;;;7.10;;
57746;SDS011;43580;44.014;20.466;2023-04-24T11:39:06;7.43;;;5.43;;
57746;SDS011;43580;44.014;20.466;2023-04-24T11:41:33;12.55;;;7.50;;
57746;SDS011;43580;44.014;20.466;2023-04-24T11:44:02;15.57;;;8.90;;
57746;SDS011;43580;44.014;20.466;2023-04-24T11:46:29;35.85;;;20.05;;
57746;SDS011;43580;44.014;20.466;2023-04-24T11:48:56;19.05;;;12.98;;
57746;SDS011;43580;44.014;20.466;2023-04-24T11:51:23;18.73;;;11.80;;
57746;SDS011;43580;44.014;20.466;2023-04-24T11:53:51;12.95;;;9.93;;
57746;SDS011;43580;44.014;20.466;2023-04-24T11:56:18;13.40;;;8.52;;
57746;SDS011;43580;44.014;20.466;2023-04-24T11:58:44;13.40;;;8.57;;
57746;SDS011;43580;44.014;20.466;2023-04-24T12:01:12;13.75;;;9.52;;
57746;SDS011;43580;44.014;20.466;2023-04-24T12:03:38;15.95;;;9.48;;
57746;SDS011;43580;44.014;20.466;2023-04-24T12:06:05;26.75;;;15.80;;
57746;SDS011;43580;44.014;20.466;2023-04-24T12:08:32;21.92;;;13.30;;
57746;SDS011;43580;44.014;20.466;2023-04-24T12:11:02;20.90;;;15.70;;
57746;SDS011;43580;44.014;20.466;2023-04-24T12:13:28;23.20;;;16.23;;
57746;SDS011;43580;44.014;20.466;2023-04-24T12:15:56;12.77;;;8.90;;
57746;SDS011;43580;44.014;20.466;2023-04-24T12:18:23;14.55;;;10.05;;
57746;SDS011;43580;44.014;20.466;2023-04-24T12:20:51;19.00;;;8.57;;
57746;SDS011;43580;44.014;20.466;2023-04-24T12:23:32;12.95;;;9.38;;
57746;SDS011;43580;44.014;20.466;2023-04-24T12:26:00;15.38;;;11.70;;
57746;SDS011;43580;44.014;20.466;2023-04-24T12:28:34;13.80;;;12.30;;
57746;SDS011;43580;44.014;20.466;2023-04-24T12:31:01;15.93;;;12.88;;
57746;SDS011;43580;44.014;20.466;2023-04-24T12:33:27;9.63;;;7.20;;
57746;SDS011;43580;44.014;20.466;2023-04-24T12:35:53;16.30;;;11.07;;
57746;SDS011;43580;44.014;20.466;2023-04-24T12:38:24;9.75;;;5.75;;
57746;SDS011;43580;44.014;20.466;2023-04-24T12:43:29;14.23;;;9.10;;
57746;SDS011;43580;44.014;20.466;2023-04-24T12:45:55;8.77;;;6.35;;
57746;SDS011;43580;44.014;20.466;2023-04-24T12:48:22;19.08;;;10.90;;
57746;SDS011;43580;44.014;20.466;2023-04-24T12:50:50;14.15;;;8.70;;
57746;SDS011;43580;44.014;20.466;2023-04-24T12:53:16;18.02;;;10.15;;
57746;SDS011;43580;44.014;20.466;2023-04-24T12:55:43;19.17;;;9.20;;
57746;SDS011;43580;44.014;20.466;2023-04-24T12:58:10;12.63;;;7.07;;
57746;SDS011;43580;44.014;20.466;2023-04-24T13:00:36;11.10;;;7.55;;
57746;SDS011;43580;44.014;20.466;2023-04-24T13:03:02;16.42;;;12.23;;
57746;SDS011;43580;44.014;20.466;2023-04-24T13:05:28;16.33;;;11.50;;
57746;SDS011;43580;44.014;20.466;2023-04-24T13:07:54;25.33;;;18.55;;
57746;SDS011;43580;44.014;20.466;2023-04-24T13:10:21;19.65;;;13.80;;
57746;SDS011;43580;44.014;20.466;2023-04-24T13:12:47;19.70;;;12.32;;
57746;SDS011;43580;44.014;20.466;2023-04-24T13:15:13;9.23;;;6.07;;
57746;SDS011;43580;44.014;20.466;2023-04-24T13:17:39;11.75;;;8.23;;
57746;SDS011;43580;44.014;20.466;2023-04-24T13:20:05;13.52;;;11.32;;
57746;SDS011;43580;44.014;20.466;2023-04-24T13:22:31;27.35;;;21.45;;
57746;SDS011;43580;44.014;20.466;2023-04-24T13:24:57;20.60;;;13.35;;
57746;SDS011;43580;44.014;20.466;2023-04-24T13:27:24;32.50;;;19.33;;
57746;SDS011;43580;44.014;20.466;2023-04-24T13:29:50;17.05;;;12.30;;
57746;SDS011;43580;44.014;20.466;2023-04-24T13:32:16;9.50;;;7.47;;
57746;SDS011;43580;44.014;20.466;2023-04-24T13:34:42;13.88;;;8.38;;
57746;SDS011;43580;44.014;20.466;2023-04-24T13:37:09;8.10;;;5.88;;
57746;SDS011;43580;44.014;20.466;2023-04-24T13:39:35;10.77;;;6.20;;
57746;SDS011;43580;44.014;20.466;2023-04-24T13:42:01;9.13;;;6.90;;
57746;SDS011;43580;44.014;20.466;2023-04-24T13:44:27;8.25;;;5.90;;
57746;SDS011;43580;44.014;20.466;2023-04-24T13:46:54;11.88;;;7.38;;
57746;SDS011;43580;44.014;20.466;2023-04-24T13:49:21;10.57;;;6.30;;
57746;SDS011;43580;44.014;20.466;2023-04-24T13:51:49;12.93;;;7.85;;
57746;SDS011;43580;44.014;20.466;2023-04-24T13:54:15;8.13;;;5.05;;
57746;SDS011;43580;44.014;20.466;2023-04-24T13:56:41;8.93;;;6.15;;
57746;SDS011;43580;44.014;20.466;2023-04-24T13:59:07;11.13;;;7.00;;
57746;SDS011;43580;44.014;20.466;2023-04-24T14:01:34;16.02;;;8.82;;
57746;SDS011;43580;44.014;20.466;2023-04-24T14:04:00;12.07;;;7.45;;
57746;SDS011;43580;44.014;20.466;2023-04-24T14:06:27;19.67;;;12.55;;
57746;SDS011;43580;44.014;20.466;2023-04-24T14:08:53;16.88;;;10.10;;
57746;SDS011;43580;44.014;20.466;2023-04-24T14:11:19;12.98;;;7.97;;
57746;SDS011;43580;44.014;20.466;2023-04-24T14:13:45;10.15;;;6.25;;
57746;SDS011;43580;44.014;20.466;2023-04-24T14:16:11;18.08;;;6.72;;
57746;SDS011;43580;44.014;20.466;2023-04-24T14:18:38;9.75;;;6.20;;
57746;SDS011;43580;44.014;20.466;2023-04-24T14:21:09;12.10;;;7.75;;
57746;SDS011;43580;44.014;20.466;2023-04-24T14:23:35;14.23;;;7.72;;
57746;SDS011;43580;44.014;20.466;2023-04-24T14:26:01;12.80;;;9.15;;
57746;SDS011;43580;44.014;20.466;2023-04-24T14:28:29;11.70;;;8.27;;
57746;SDS011;43580;44.014;20.466;2023-04-24T14:30:55;14.15;;;8.93;;
57746;SDS011;43580;44.014;20.466;2023-04-24T14:33:21;14.20;;;8.00;;